Aviation Digital Data Service (ADDS)

Output produced by METARs form (1654 UTC 03 December 2021)
found at http://www.aviationweather.gov/metar/data/
 
METAR text: EDSB 031620Z 20013KT CAVOK 03/M01 Q1012
Conditions at: EDSB (KARLSRUHE/BADEN , DE) observed 1620 UTC 03 December 2021
Temperature: 3.0°C (37°F)
Dewpoint: -1.0°C (30°F) [RH = 75%]
Pressure (altimeter): 29.88 inches Hg (1012.0 mb)
Winds: from the SSW (200 degrees) at 15 MPH (13 knots; 6.7 m/s)
Visibility: 6 or more miles (10+ km)
Ceiling: ceiling and visibility are OK
Clouds: unknown
Weather: no significant weather observed at this time

METAR text: EDSB 031550Z 20014KT CAVOK 03/M01 Q1013
Conditions at: EDSB (KARLSRUHE/BADEN , DE) observed 1550 UTC 03 December 2021
Temperature: 3.0°C (37°F)
Dewpoint: -1.0°C (30°F) [RH = 75%]
Pressure (altimeter): 29.91 inches Hg (1013.0 mb)
Winds: from the SSW (200 degrees) at 16 MPH (14 knots; 7.2 m/s)
Visibility: 6 or more miles (10+ km)
Ceiling: ceiling and visibility are OK
Clouds: unknown
Weather: no significant weather observed at this time

METAR text: EDSB 031520Z 20015KT CAVOK 03/M01 Q1013
Conditions at: EDSB (KARLSRUHE/BADEN , DE) observed 1520 UTC 03 December 2021
Temperature: 3.0°C (37°F)
Dewpoint: -1.0°C (30°F) [RH = 75%]
Pressure (altimeter): 29.91 inches Hg (1013.0 mb)
Winds: from the SSW (200 degrees) at 17 MPH (15 knots; 7.7 m/s)
Visibility: 6 or more miles (10+ km)
Ceiling: ceiling and visibility are OK
Clouds: unknown
Weather: no significant weather observed at this time

METAR text: EDSB 031450Z 20015KT CAVOK 04/M01 Q1013
Conditions at: EDSB (KARLSRUHE/BADEN , DE) observed 1450 UTC 03 December 2021
Temperature: 4.0°C (39°F)
Dewpoint: -1.0°C (30°F) [RH = 70%]
Pressure (altimeter): 29.91 inches Hg (1013.0 mb)
Winds: from the SSW (200 degrees) at 17 MPH (15 knots; 7.7 m/s)
Visibility: 6 or more miles (10+ km)
Ceiling: ceiling and visibility are OK
Clouds: unknown
Weather: no significant weather observed at this time

METAR text: EDSB 031420Z 20016KT CAVOK 04/M01 Q1014
Conditions at: EDSB (KARLSRUHE/BADEN , DE) observed 1420 UTC 03 December 2021
Temperature: 4.0°C (39°F)
Dewpoint: -1.0°C (30°F) [RH = 70%]
Pressure (altimeter): 29.94 inches Hg (1014.0 mb)
Winds: from the SSW (200 degrees) at 18 MPH (16 knots; 8.2 m/s)
Visibility: 6 or more miles (10+ km)
Ceiling: ceiling and visibility are OK
Clouds: unknown
Weather: no significant weather observed at this time

METAR text: EDSB 031350Z 20014KT CAVOK 04/M01 Q1014
Conditions at: EDSB (KARLSRUHE/BADEN , DE) observed 1350 UTC 03 December 2021
Temperature: 4.0°C (39°F)
Dewpoint: -1.0°C (30°F) [RH = 70%]
Pressure (altimeter): 29.94 inches Hg (1014.0 mb)
Winds: from the SSW (200 degrees) at 16 MPH (14 knots; 7.2 m/s)
Visibility: 6 or more miles (10+ km)
Ceiling: ceiling and visibility are OK
Clouds: unknown
Weather: no significant weather observed at this time

METAR text: EDSB 031320Z 21013KT CAVOK 04/M01 Q1014
Conditions at: EDSB (KARLSRUHE/BADEN , DE) observed 1320 UTC 03 December 2021
Temperature: 4.0°C (39°F)
Dewpoint: -1.0°C (30°F) [RH = 70%]
Pressure (altimeter): 29.94 inches Hg (1014.0 mb)
Winds: from the SSW (210 degrees) at 15 MPH (13 knots; 6.7 m/s)
Visibility: 6 or more miles (10+ km)
Ceiling: ceiling and visibility are OK
Clouds: unknown
Weather: no significant weather observed at this time

METAR text: EDSB 031250Z 21014KT CAVOK 03/M01 Q1014
Conditions at: EDSB (KARLSRUHE/BADEN , DE) observed 1250 UTC 03 December 2021
Temperature: 3.0°C (37°F)
Dewpoint: -1.0°C (30°F) [RH = 75%]
Pressure (altimeter): 29.94 inches Hg (1014.0 mb)
Winds: from the SSW (210 degrees) at 16 MPH (14 knots; 7.2 m/s)
Visibility: 6 or more miles (10+ km)
Ceiling: ceiling and visibility are OK
Clouds: unknown
Weather: no significant weather observed at this time

METAR text: EDSB 031220Z 22012KT CAVOK 03/M01 Q1015
Conditions at: EDSB (KARLSRUHE/BADEN , DE) observed 1220 UTC 03 December 2021
Temperature: 3.0°C (37°F)
Dewpoint: -1.0°C (30°F) [RH = 75%]
Pressure (altimeter): 29.97 inches Hg (1015.0 mb)
Winds: from the SW (220 degrees) at 14 MPH (12 knots; 6.2 m/s)
Visibility: 6 or more miles (10+ km)
Ceiling: ceiling and visibility are OK
Clouds: unknown
Weather: no significant weather observed at this time

METAR text: EDSB 031150Z 22013KT CAVOK 03/M01 Q1015
Conditions at: EDSB (KARLSRUHE/BADEN , DE) observed 1150 UTC 03 December 2021
Temperature: 3.0°C (37°F)
Dewpoint: -1.0°C (30°F) [RH = 75%]
Pressure (altimeter): 29.97 inches Hg (1015.0 mb)
Winds: from the SW (220 degrees) at 15 MPH (13 knots; 6.7 m/s)
Visibility: 6 or more miles (10+ km)
Ceiling: ceiling and visibility are OK
Clouds: unknown
Weather: no significant weather observed at this time

METAR text: EDSB 031120Z 22014KT CAVOK 03/M01 Q1015
Conditions at: EDSB (KARLSRUHE/BADEN , DE) observed 1120 UTC 03 December 2021
Temperature: 3.0°C (37°F)
Dewpoint: -1.0°C (30°F) [RH = 75%]
Pressure (altimeter): 29.97 inches Hg (1015.0 mb)
Winds: from the SW (220 degrees) at 16 MPH (14 knots; 7.2 m/s)
Visibility: 6 or more miles (10+ km)
Ceiling: ceiling and visibility are OK
Clouds: unknown
Weather: no significant weather observed at this time

METAR text: EDSB 031050Z 22011KT CAVOK 03/M01 Q1016
Conditions at: EDSB (KARLSRUHE/BADEN , DE) observed 1050 UTC 03 December 2021
Temperature: 3.0°C (37°F)
Dewpoint: -1.0°C (30°F) [RH = 75%]
Pressure (altimeter): 30.00 inches Hg (1016.0 mb)
Winds: from the SW (220 degrees) at 13 MPH (11 knots; 5.7 m/s)
Visibility: 6 or more miles (10+ km)
Ceiling: ceiling and visibility are OK
Clouds: unknown
Weather: no significant weather observed at this time

METAR text: EDSB 031020Z 21014KT 9999 FEW038 03/M01 Q1016
Conditions at: EDSB (KARLSRUHE/BADEN , DE) observed 1020 UTC 03 December 2021
Temperature: 3.0°C (37°F)
Dewpoint: -1.0°C (30°F) [RH = 75%]
Pressure (altimeter): 30.00 inches Hg (1016.0 mb)
Winds: from the SSW (210 degrees) at 16 MPH (14 knots; 7.2 m/s)
Visibility: 6 or more miles (10+ km)
Ceiling: at least 12,000 feet AGL
Clouds: few clouds at 3800 feet AGL
Weather: no significant weather observed at this time

METAR text: EDSB 030950Z 21011KT 9999 SCT037 03/M00 Q1016
Conditions at: EDSB (KARLSRUHE/BADEN , DE) observed 0950 UTC 03 December 2021
Temperature: 3.0°C (37°F)
Dewpoint: 0.0°C (32°F) [RH = 81%]
Pressure (altimeter): 30.00 inches Hg (1016.0 mb)
Winds: from the SSW (210 degrees) at 13 MPH (11 knots; 5.7 m/s)
Visibility: 6 or more miles (10+ km)
Ceiling: at least 12,000 feet AGL
Clouds: scattered clouds at 3700 feet AGL
Weather: no significant weather observed at this time

METAR text: EDSB 030920Z 22011KT 9999 FEW032 BKN036 02/M01 Q1016
Conditions at: EDSB (KARLSRUHE/BADEN , DE) observed 0920 UTC 03 December 2021
Temperature: 2.0°C (36°F)
Dewpoint: -1.0°C (30°F) [RH = 80%]
Pressure (altimeter): 30.00 inches Hg (1016.0 mb)
Winds: from the SW (220 degrees) at 13 MPH (11 knots; 5.7 m/s)
Visibility: 6 or more miles (10+ km)
Ceiling: 3600 feet AGL
Clouds: few clouds at 3200 feet AGL
broken clouds at 3600 feet AGL
Weather: no significant weather observed at this time

METAR text: EDSB 030850Z 22007KT 9999 FEW033 01/M01 Q1016
Conditions at: EDSB (KARLSRUHE/BADEN , DE) observed 0850 UTC 03 December 2021
Temperature: 1.0°C (34°F)
Dewpoint: -1.0°C (30°F) [RH = 86%]
Pressure (altimeter): 30.00 inches Hg (1016.0 mb)
Winds: from the SW (220 degrees) at 8 MPH (7 knots; 3.6 m/s)
Visibility: 6 or more miles (10+ km)
Ceiling: at least 12,000 feet AGL
Clouds: few clouds at 3300 feet AGL
Weather: no significant weather observed at this time

METAR text: EDSB 030820Z 21008KT 9999 BKN028 01/M01 Q1016
Conditions at: EDSB (KARLSRUHE/BADEN , DE) observed 0820 UTC 03 December 2021
Temperature: 1.0°C (34°F)
Dewpoint: -1.0°C (30°F) [RH = 86%]
Pressure (altimeter): 30.00 inches Hg (1016.0 mb)
Winds: from the SSW (210 degrees) at 9 MPH (8 knots; 4.1 m/s)
Visibility: 6 or more miles (10+ km)
Ceiling: 2800 feet AGL
Clouds: broken clouds at 2800 feet AGL
Weather: no significant weather observed at this time

METAR text: EDSB 030750Z 21005KT 9999 BKN027 01/M01 Q1016
Conditions at: EDSB (KARLSRUHE/BADEN , DE) observed 0750 UTC 03 December 2021
Temperature: 1.0°C (34°F)
Dewpoint: -1.0°C (30°F) [RH = 86%]
Pressure (altimeter): 30.00 inches Hg (1016.0 mb)
Winds: from the SSW (210 degrees) at 6 MPH (5 knots; 2.6 m/s)
Visibility: 6 or more miles (10+ km)
Ceiling: 2700 feet AGL
Clouds: broken clouds at 2700 feet AGL
Weather: no significant weather observed at this time

METAR text: EDSB 030720Z 21005KT 9999 BKN026 00/M01 Q1016
Conditions at: EDSB (KARLSRUHE/BADEN , DE) observed 0720 UTC 03 December 2021
Temperature: 0.0°C (32°F)
Dewpoint: -1.0°C (30°F) [RH = 93%]
Pressure (altimeter): 30.00 inches Hg (1016.0 mb)
Winds: from the SSW (210 degrees) at 6 MPH (5 knots; 2.6 m/s)
Visibility: 6 or more miles (10+ km)
Ceiling: 2600 feet AGL
Clouds: broken clouds at 2600 feet AGL
Weather: no significant weather observed at this time

METAR text: EDSB 030650Z 21007KT 9999 BKN025 01/M01 Q1015
Conditions at: EDSB (KARLSRUHE/BADEN , DE) observed 0650 UTC 03 December 2021
Temperature: 1.0°C (34°F)
Dewpoint: -1.0°C (30°F) [RH = 86%]
Pressure (altimeter): 29.97 inches Hg (1015.0 mb)
Winds: from the SSW (210 degrees) at 8 MPH (7 knots; 3.6 m/s)
Visibility: 6 or more miles (10+ km)
Ceiling: 2500 feet AGL
Clouds: broken clouds at 2500 feet AGL
Weather: no significant weather observed at this time

METAR text: EDSB 030620Z 21007KT 9999 OVC030 00/M01 Q1015
Conditions at: EDSB (KARLSRUHE/BADEN , DE) observed 0620 UTC 03 December 2021
Temperature: 0.0°C (32°F)
Dewpoint: -1.0°C (30°F) [RH = 93%]
Pressure (altimeter): 29.97 inches Hg (1015.0 mb)
Winds: from the SSW (210 degrees) at 8 MPH (7 knots; 3.6 m/s)
Visibility: 6 or more miles (10+ km)
Ceiling: 3000 feet AGL
Clouds: overcast cloud deck at 3000 feet AGL
Weather: no significant weather observed at this time

METAR text: EDSB 030550Z 22005KT 9999 BKN031 00/M01 Q1015
Conditions at: EDSB (KARLSRUHE/BADEN , DE) observed 0550 UTC 03 December 2021
Temperature: 0.0°C (32°F)
Dewpoint: -1.0°C (30°F) [RH = 93%]
Pressure (altimeter): 29.97 inches Hg (1015.0 mb)
Winds: from the SW (220 degrees) at 6 MPH (5 knots; 2.6 m/s)
Visibility: 6 or more miles (10+ km)
Ceiling: 3100 feet AGL
Clouds: broken clouds at 3100 feet AGL
Weather: no significant weather observed at this time

METAR text: EDSB 030520Z 20006KT CAVOK M02/M03 Q1015
Conditions at: EDSB (KARLSRUHE/BADEN , DE) observed 0520 UTC 03 December 2021
Temperature: -2.0°C (28°F)
Dewpoint: -3.0°C (27°F) [RH = 93%]
Pressure (altimeter): 29.97 inches Hg (1015.0 mb)
Winds: from the SSW (200 degrees) at 7 MPH (6 knots; 3.1 m/s)
Visibility: 6 or more miles (10+ km)
Ceiling: ceiling and visibility are OK
Clouds: unknown
Weather: no significant weather observed at this time

METAR text: EDSB 030450Z 20007KT CAVOK M02/M03 Q1015
Conditions at: EDSB (KARLSRUHE/BADEN , DE) observed 0450 UTC 03 December 2021
Temperature: -2.0°C (28°F)
Dewpoint: -3.0°C (27°F) [RH = 93%]
Pressure (altimeter): 29.97 inches Hg (1015.0 mb)
Winds: from the SSW (200 degrees) at 8 MPH (7 knots; 3.6 m/s)
Visibility: 6 or more miles (10+ km)
Ceiling: ceiling and visibility are OK
Clouds: unknown
Weather: no significant weather observed at this time

METAR text: EDSB 030420Z 21005KT CAVOK M02/M03 Q1015
Conditions at: EDSB (KARLSRUHE/BADEN , DE) observed 0420 UTC 03 December 2021
Temperature: -2.0°C (28°F)
Dewpoint: -3.0°C (27°F) [RH = 93%]
Pressure (altimeter): 29.97 inches Hg (1015.0 mb)
Winds: from the SSW (210 degrees) at 6 MPH (5 knots; 2.6 m/s)
Visibility: 6 or more miles (10+ km)
Ceiling: ceiling and visibility are OK
Clouds: unknown
Weather: no significant weather observed at this time

METAR text: EDSB 030350Z 20006KT CAVOK M01/M02 Q1014
Conditions at: EDSB (KARLSRUHE/BADEN , DE) observed 0350 UTC 03 December 2021
Temperature: -1.0°C (30°F)
Dewpoint: -2.0°C (28°F) [RH = 93%]
Pressure (altimeter): 29.94 inches Hg (1014.0 mb)
Winds: from the SSW (200 degrees) at 7 MPH (6 knots; 3.1 m/s)
Visibility: 6 or more miles (10+ km)
Ceiling: ceiling and visibility are OK
Clouds: unknown
Weather: no significant weather observed at this time

METAR text: EDSB 030320Z AUTO 21006KT 9999 NCD M01/M02 Q1014
Conditions at: EDSB (KARLSRUHE/BADEN , DE) observed 0320 UTC 03 December 2021
Temperature: -1.0°C (30°F)
Dewpoint: -2.0°C (28°F) [RH = 93%]
Pressure (altimeter): 29.94 inches Hg (1014.0 mb)
Winds: from the SSW (210 degrees) at 7 MPH (6 knots; 3.1 m/s)
Visibility: 6 or more miles (10+ km)
Ceiling: at least 12,000 feet AGL
Clouds: sky clear below 12,000 feet AGL
Weather: no significant weather observed at this time

METAR text: EDSB 030250Z AUTO 22006KT 9999 NCD M01/M03 Q1014
Conditions at: EDSB (KARLSRUHE/BADEN , DE) observed 0250 UTC 03 December 2021
Temperature: -1.0°C (30°F)
Dewpoint: -3.0°C (27°F) [RH = 86%]
Pressure (altimeter): 29.94 inches Hg (1014.0 mb)
Winds: from the SW (220 degrees) at 7 MPH (6 knots; 3.1 m/s)
Visibility: 6 or more miles (10+ km)
Ceiling: at least 12,000 feet AGL
Clouds: sky clear below 12,000 feet AGL
Weather: no significant weather observed at this time

METAR text: EDSB 030220Z AUTO 18007KT 9999 NCD M01/M02 Q1014
Conditions at: EDSB (KARLSRUHE/BADEN , DE) observed 0220 UTC 03 December 2021
Temperature: -1.0°C (30°F)
Dewpoint: -2.0°C (28°F) [RH = 93%]
Pressure (altimeter): 29.94 inches Hg (1014.0 mb)
Winds: from the S (180 degrees) at 8 MPH (7 knots; 3.6 m/s)
Visibility: 6 or more miles (10+ km)
Ceiling: at least 12,000 feet AGL
Clouds: sky clear below 12,000 feet AGL
Weather: no significant weather observed at this time

METAR text: EDSB 030150Z AUTO 20005KT 9999 FEW057/// M00/M01 Q1014
Conditions at: EDSB (KARLSRUHE/BADEN , DE) observed 0150 UTC 03 December 2021
Temperature: 0.0°C (32°F)
Dewpoint: -1.0°C (30°F) [RH = 93%]
Pressure (altimeter): 29.94 inches Hg (1014.0 mb)
Winds: from the SSW (200 degrees) at 6 MPH (5 knots; 2.6 m/s)
Visibility: 6 or more miles (10+ km)
Ceiling: at least 12,000 feet AGL
Clouds: few clouds at 5700 feet AGL
Weather: no significant weather observed at this time

METAR text: EDSB 030120Z AUTO 21006KT 9999 BKN057/// 00/M01 Q1013
Conditions at: EDSB (KARLSRUHE/BADEN , DE) observed 0120 UTC 03 December 2021
Temperature: 0.0°C (32°F)
Dewpoint: -1.0°C (30°F) [RH = 93%]
Pressure (altimeter): 29.91 inches Hg (1013.0 mb)
Winds: from the SSW (210 degrees) at 7 MPH (6 knots; 3.1 m/s)
Visibility: 6 or more miles (10+ km)
Ceiling: 5700 feet AGL
Clouds: broken clouds at 5700 feet AGL
Weather: no significant weather observed at this time

METAR text: EDSB 030050Z AUTO 20006KT 9999 BKN058/// 01/M01 Q1013
Conditions at: EDSB (KARLSRUHE/BADEN , DE) observed 0050 UTC 03 December 2021
Temperature: 1.0°C (34°F)
Dewpoint: -1.0°C (30°F) [RH = 86%]
Pressure (altimeter): 29.91 inches Hg (1013.0 mb)
Winds: from the SSW (200 degrees) at 7 MPH (6 knots; 3.1 m/s)
Visibility: 6 or more miles (10+ km)
Ceiling: 5800 feet AGL
Clouds: broken clouds at 5800 feet AGL
Weather: no significant weather observed at this time

METAR text: EDSB 030020Z AUTO VRB04KT 9999 BKN053/// 01/M01 Q1013
Conditions at: EDSB (KARLSRUHE/BADEN , DE) observed 0020 UTC 03 December 2021
Temperature: 1.0°C (34°F)
Dewpoint: -1.0°C (30°F) [RH = 86%]
Pressure (altimeter): 29.91 inches Hg (1013.0 mb)
Winds: variable direction winds at 5 MPH (4 knots; 2.1 m/s)
Visibility: 6 or more miles (10+ km)
Ceiling: 5300 feet AGL
Clouds: broken clouds at 5300 feet AGL
Weather: no significant weather observed at this time

METAR text: EDSB 022350Z AUTO 24004KT 200V290 9999 BKN060/// 02/M00 Q1012
Conditions at: EDSB (KARLSRUHE/BADEN , DE) observed 2350 UTC 02 December 2021
Temperature: 2.0°C (36°F)
Dewpoint: 0.0°C (32°F) [RH = 87%]
Pressure (altimeter): 29.88 inches Hg (1012.0 mb)
Winds: from the WSW (240 degrees) at 5 MPH (4 knots; 2.1 m/s)
Visibility: 6 or more miles (10+ km)
Ceiling: 6000 feet AGL
Clouds: broken clouds at 6000 feet AGL
Weather: no significant weather observed at this time

METAR text: EDSB 022320Z AUTO 25005KT 220V300 9999 OVC052/// 02/M00 Q1012
Conditions at: EDSB (KARLSRUHE/BADEN , DE) observed 2320 UTC 02 December 2021
Temperature: 2.0°C (36°F)
Dewpoint: 0.0°C (32°F) [RH = 87%]
Pressure (altimeter): 29.88 inches Hg (1012.0 mb)
Winds: from the WSW (250 degrees) at 6 MPH (5 knots; 2.6 m/s)
Visibility: 6 or more miles (10+ km)
Ceiling: 5200 feet AGL
Clouds: overcast cloud deck at 5200 feet AGL
Weather: no significant weather observed at this time

METAR text: EDSB 022250Z AUTO 26006KT 230V300 9999 FEW048/// BKN054/// BKN066/// 02/00 Q1011
Conditions at: EDSB (KARLSRUHE/BADEN , DE) observed 2250 UTC 02 December 2021
Temperature: 2.0°C (36°F)
Dewpoint: 0.0°C (32°F) [RH = 87%]
Pressure (altimeter): 29.85 inches Hg (1011.0 mb)
Winds: from the W (260 degrees) at 7 MPH (6 knots; 3.1 m/s)
Visibility: 6 or more miles (10+ km)
Ceiling: 5400 feet AGL
Clouds: few clouds at 4800 feet AGL
broken clouds at 5400 feet AGL
broken clouds at 6600 feet AGL
Weather: no significant weather observed at this time

METAR text: EDSB 022220Z AUTO 25005KT 220V290 9999 OVC060/// 03/00 Q1011
Conditions at: EDSB (KARLSRUHE/BADEN , DE) observed 2220 UTC 02 December 2021
Temperature: 3.0°C (37°F)
Dewpoint: 0.0°C (32°F) [RH = 81%]
Pressure (altimeter): 29.85 inches Hg (1011.0 mb)
Winds: from the WSW (250 degrees) at 6 MPH (5 knots; 2.6 m/s)
Visibility: 6 or more miles (10+ km)
Ceiling: 6000 feet AGL
Clouds: overcast cloud deck at 6000 feet AGL
Weather: no significant weather observed at this time

METAR text: EDSB 022150Z AUTO 26006KT 220V300 9999 OVC057/// 03/00 Q1010
Conditions at: EDSB (KARLSRUHE/BADEN , DE) observed 2150 UTC 02 December 2021
Temperature: 3.0°C (37°F)
Dewpoint: 0.0°C (32°F) [RH = 81%]
Pressure (altimeter): 29.82 inches Hg (1010.0 mb)
Winds: from the W (260 degrees) at 7 MPH (6 knots; 3.1 m/s)
Visibility: 6 or more miles (10+ km)
Ceiling: 5700 feet AGL
Clouds: overcast cloud deck at 5700 feet AGL
Weather: no significant weather observed at this time

METAR text: EDSB 022120Z 26005KT 230V300 CAVOK 03/M00 Q1010
Conditions at: EDSB (KARLSRUHE/BADEN , DE) observed 2120 UTC 02 December 2021
Temperature: 3.0°C (37°F)
Dewpoint: 0.0°C (32°F) [RH = 81%]
Pressure (altimeter): 29.82 inches Hg (1010.0 mb)
Winds: from the W (260 degrees) at 6 MPH (5 knots; 2.6 m/s)
Visibility: 6 or more miles (10+ km)
Ceiling: ceiling and visibility are OK
Clouds: unknown
Weather: no significant weather observed at this time

METAR text: EDSB 022050Z 26006KT 220V300 CAVOK 03/00 Q1010
Conditions at: EDSB (KARLSRUHE/BADEN , DE) observed 2050 UTC 02 December 2021
Temperature: 3.0°C (37°F)
Dewpoint: 0.0°C (32°F) [RH = 81%]
Pressure (altimeter): 29.82 inches Hg (1010.0 mb)
Winds: from the W (260 degrees) at 7 MPH (6 knots; 3.1 m/s)
Visibility: 6 or more miles (10+ km)
Ceiling: ceiling and visibility are OK
Clouds: unknown
Weather: no significant weather observed at this time

METAR text: EDSB 022020Z 24006KT CAVOK 03/00 Q1009
Conditions at: EDSB (KARLSRUHE/BADEN , DE) observed 2020 UTC 02 December 2021
Temperature: 3.0°C (37°F)
Dewpoint: 0.0°C (32°F) [RH = 81%]
Pressure (altimeter): 29.79 inches Hg (1009.0 mb)
Winds: from the WSW (240 degrees) at 7 MPH (6 knots; 3.1 m/s)
Visibility: 6 or more miles (10+ km)
Ceiling: ceiling and visibility are OK
Clouds: unknown
Weather: no significant weather observed at this time

METAR text: EDSB 021950Z 25005KT CAVOK 03/M00 Q1009
Conditions at: EDSB (KARLSRUHE/BADEN , DE) observed 1950 UTC 02 December 2021
Temperature: 3.0°C (37°F)
Dewpoint: 0.0°C (32°F) [RH = 81%]
Pressure (altimeter): 29.79 inches Hg (1009.0 mb)
Winds: from the WSW (250 degrees) at 6 MPH (5 knots; 2.6 m/s)
Visibility: 6 or more miles (10+ km)
Ceiling: ceiling and visibility are OK
Clouds: unknown
Weather: no significant weather observed at this time

METAR text: EDSB 021920Z 25005KT 220V290 CAVOK 03/M01 Q1008
Conditions at: EDSB (KARLSRUHE/BADEN , DE) observed 1920 UTC 02 December 2021
Temperature: 3.0°C (37°F)
Dewpoint: -1.0°C (30°F) [RH = 75%]
Pressure (altimeter): 29.76 inches Hg (1008.0 mb)
Winds: from the WSW (250 degrees) at 6 MPH (5 knots; 2.6 m/s)
Visibility: 6 or more miles (10+ km)
Ceiling: ceiling and visibility are OK
Clouds: unknown
Weather: no significant weather observed at this time

METAR text: EDSB 021850Z 27005KT 200V300 CAVOK 04/M01 Q1008
Conditions at: EDSB (KARLSRUHE/BADEN , DE) observed 1850 UTC 02 December 2021
Temperature: 4.0°C (39°F)
Dewpoint: -1.0°C (30°F) [RH = 70%]
Pressure (altimeter): 29.76 inches Hg (1008.0 mb)
Winds: from the W (270 degrees) at 6 MPH (5 knots; 2.6 m/s)
Visibility: 6 or more miles (10+ km)
Ceiling: ceiling and visibility are OK
Clouds: unknown
Weather: no significant weather observed at this time

METAR text: EDSB 021820Z 28003KT 200V330 CAVOK 04/M00 Q1008
Conditions at: EDSB (KARLSRUHE/BADEN , DE) observed 1820 UTC 02 December 2021
Temperature: 4.0°C (39°F)
Dewpoint: 0.0°C (32°F) [RH = 75%]
Pressure (altimeter): 29.76 inches Hg (1008.0 mb)
Winds: from the W (280 degrees) at 3 MPH (3 knots; 1.5 m/s)
Visibility: 6 or more miles (10+ km)
Ceiling: ceiling and visibility are OK
Clouds: unknown
Weather: no significant weather observed at this time

METAR text: EDSB 021750Z 29004KT 260V340 CAVOK 04/M00 Q1007
Conditions at: EDSB (KARLSRUHE/BADEN , DE) observed 1750 UTC 02 December 2021
Temperature: 4.0°C (39°F)
Dewpoint: 0.0°C (32°F) [RH = 75%]
Pressure (altimeter): 29.73 inches Hg (1007.0 mb)
Winds: from the WNW (290 degrees) at 5 MPH (4 knots; 2.1 m/s)
Visibility: 6 or more miles (10+ km)
Ceiling: ceiling and visibility are OK
Clouds: unknown
Weather: no significant weather observed at this time

METAR text: EDSB 021720Z 28005KT 230V330 9999 SCT047 04/00 Q1006
Conditions at: EDSB (KARLSRUHE/BADEN , DE) observed 1720 UTC 02 December 2021
Temperature: 4.0°C (39°F)
Dewpoint: 0.0°C (32°F) [RH = 75%]
Pressure (altimeter): 29.70 inches Hg (1006.0 mb)
Winds: from the W (280 degrees) at 6 MPH (5 knots; 2.6 m/s)
Visibility: 6 or more miles (10+ km)
Ceiling: at least 12,000 feet AGL
Clouds: scattered clouds at 4700 feet AGL
Weather: no significant weather observed at this time

METAR text: EDSB 021650Z 28005KT 240V320 CAVOK 04/00 Q1006
Conditions at: EDSB (KARLSRUHE/BADEN , DE) observed 1650 UTC 02 December 2021
Temperature: 4.0°C (39°F)
Dewpoint: 0.0°C (32°F) [RH = 75%]
Pressure (altimeter): 29.70 inches Hg (1006.0 mb)
Winds: from the W (280 degrees) at 6 MPH (5 knots; 2.6 m/s)
Visibility: 6 or more miles (10+ km)
Ceiling: ceiling and visibility are OK
Clouds: unknown
Weather: no significant weather observed at this time

METAR text: EDSB 021620Z 27004KT 240V310 9999 VCSH SCT042TCU 04/00 Q1005
Conditions at: EDSB (KARLSRUHE/BADEN , DE) observed 1620 UTC 02 December 2021
Temperature: 4.0°C (39°F)
Dewpoint: 0.0°C (32°F) [RH = 75%]
Pressure (altimeter): 29.68 inches Hg (1005.0 mb)
Winds: from the W (270 degrees) at 5 MPH (4 knots; 2.1 m/s)
Visibility: 6 or more miles (10+ km)
Ceiling: at least 12,000 feet AGL
Clouds: scattered clouds at 4200 feet AGL
Weather: VCSH  (showers in vicinity)

METAR text: EDSB 021550Z 24004KT 220V290 9999 VCSH SCT040TCU BKN051 04/01 Q1004
Conditions at: EDSB (KARLSRUHE/BADEN , DE) observed 1550 UTC 02 December 2021
Temperature: 4.0°C (39°F)
Dewpoint: 1.0°C (34°F) [RH = 81%]
Pressure (altimeter): 29.65 inches Hg (1004.0 mb)
Winds: from the WSW (240 degrees) at 5 MPH (4 knots; 2.1 m/s)
Visibility: 6 or more miles (10+ km)
Ceiling: 5100 feet AGL
Clouds: scattered clouds at 4000 feet AGL
broken clouds at 5100 feet AGL
Weather: VCSH  (showers in vicinity)

METAR text: EDSB 021520Z 24003KT 9999 FEW039 BKN050 04/00 Q1004
Conditions at: EDSB (KARLSRUHE/BADEN , DE) observed 1520 UTC 02 December 2021
Temperature: 4.0°C (39°F)
Dewpoint: 0.0°C (32°F) [RH = 75%]
Pressure (altimeter): 29.65 inches Hg (1004.0 mb)
Winds: from the WSW (240 degrees) at 3 MPH (3 knots; 1.5 m/s)
Visibility: 6 or more miles (10+ km)
Ceiling: 5000 feet AGL
Clouds: few clouds at 3900 feet AGL
broken clouds at 5000 feet AGL
Weather: no significant weather observed at this time

METAR text: EDSB 021450Z 27007KT 230V320 9999 VCSH SCT021 BKN026 04/01 Q1003
Conditions at: EDSB (KARLSRUHE/BADEN , DE) observed 1450 UTC 02 December 2021
Temperature: 4.0°C (39°F)
Dewpoint: 1.0°C (34°F) [RH = 81%]
Pressure (altimeter): 29.62 inches Hg (1003.0 mb)
Winds: from the W (270 degrees) at 8 MPH (7 knots; 3.6 m/s)
Visibility: 6 or more miles (10+ km)
Ceiling: 2600 feet AGL
Clouds: scattered clouds at 2100 feet AGL
broken clouds at 2600 feet AGL
Weather: VCSH  (showers in vicinity)

METAR text: EDSB 021420Z 26005KT 220V330 9999 FEW027 05/01 Q1003
Conditions at: EDSB (KARLSRUHE/BADEN , DE) observed 1420 UTC 02 December 2021
Temperature: 5.0°C (41°F)
Dewpoint: 1.0°C (34°F) [RH = 75%]
Pressure (altimeter): 29.62 inches Hg (1003.0 mb)
Winds: from the W (260 degrees) at 6 MPH (5 knots; 2.6 m/s)
Visibility: 6 or more miles (10+ km)
Ceiling: at least 12,000 feet AGL
Clouds: few clouds at 2700 feet AGL
Weather: no significant weather observed at this time

METAR text: EDSB 021350Z 28007KT 230V310 9999 SCT020 SCT063 05/01 Q1002
Conditions at: EDSB (KARLSRUHE/BADEN , DE) observed 1350 UTC 02 December 2021
Temperature: 5.0°C (41°F)
Dewpoint: 1.0°C (34°F) [RH = 75%]
Pressure (altimeter): 29.59 inches Hg (1002.0 mb)
Winds: from the W (280 degrees) at 8 MPH (7 knots; 3.6 m/s)
Visibility: 6 or more miles (10+ km)
Ceiling: at least 12,000 feet AGL
Clouds: scattered clouds at 2000 feet AGL
scattered clouds at 6300 feet AGL
Weather: no significant weather observed at this time

METAR text: EDSB 021320Z 27006KT 240V310 9999 FEW019 SCT046 05/02 Q1002
Conditions at: EDSB (KARLSRUHE/BADEN , DE) observed 1320 UTC 02 December 2021
Temperature: 5.0°C (41°F)
Dewpoint: 2.0°C (36°F) [RH = 81%]
Pressure (altimeter): 29.59 inches Hg (1002.0 mb)
Winds: from the W (270 degrees) at 7 MPH (6 knots; 3.1 m/s)
Visibility: 6 or more miles (10+ km)
Ceiling: at least 12,000 feet AGL
Clouds: few clouds at 1900 feet AGL
scattered clouds at 4600 feet AGL
Weather: no significant weather observed at this time

METAR text: EDSB 021250Z 26007KT 210V290 9999 VCSH FEW019 BKN040 05/02 Q1002
Conditions at: EDSB (KARLSRUHE/BADEN , DE) observed 1250 UTC 02 December 2021
Temperature: 5.0°C (41°F)
Dewpoint: 2.0°C (36°F) [RH = 81%]
Pressure (altimeter): 29.59 inches Hg (1002.0 mb)
Winds: from the W (260 degrees) at 8 MPH (7 knots; 3.6 m/s)
Visibility: 6 or more miles (10+ km)
Ceiling: 4000 feet AGL
Clouds: few clouds at 1900 feet AGL
broken clouds at 4000 feet AGL
Weather: VCSH  (showers in vicinity)

METAR text: EDSB 021220Z 25005KT 210V310 9999 FEW013 BKN016 OVC028 05/03 Q1002
Conditions at: EDSB (KARLSRUHE/BADEN , DE) observed 1220 UTC 02 December 2021
Temperature: 5.0°C (41°F)
Dewpoint: 3.0°C (37°F) [RH = 87%]
Pressure (altimeter): 29.59 inches Hg (1002.0 mb)
Winds: from the WSW (250 degrees) at 6 MPH (5 knots; 2.6 m/s)
Visibility: 6 or more miles (10+ km)
Ceiling: 1600 feet AGL
Clouds: few clouds at 1300 feet AGL
broken clouds at 1600 feet AGL
overcast cloud deck at 2800 feet AGL
Weather: no significant weather observed at this time

METAR text: EDSB 021150Z 25006KT 210V290 9000 VCSH SCT014 BKN042 OVC050 05/03 Q1002
Conditions at: EDSB (KARLSRUHE/BADEN , DE) observed 1150 UTC 02 December 2021
Temperature: 5.0°C (41°F)
Dewpoint: 3.0°C (37°F) [RH = 87%]
Pressure (altimeter): 29.59 inches Hg (1002.0 mb)
Winds: from the WSW (250 degrees) at 7 MPH (6 knots; 3.1 m/s)
Visibility: 6 miles ( 9 km)
Ceiling: 4200 feet AGL
Clouds: scattered clouds at 1400 feet AGL
broken clouds at 4200 feet AGL
overcast cloud deck at 5000 feet AGL
Weather: VCSH  (showers in vicinity)

METAR text: EDSB 021120Z 24004KT 210V300 8000 VCSH SCT017 BKN033 05/03 Q1002
Conditions at: EDSB (KARLSRUHE/BADEN , DE) observed 1120 UTC 02 December 2021
Temperature: 5.0°C (41°F)
Dewpoint: 3.0°C (37°F) [RH = 87%]
Pressure (altimeter): 29.59 inches Hg (1002.0 mb)
Winds: from the WSW (240 degrees) at 5 MPH (4 knots; 2.1 m/s)
Visibility: 5 miles ( 8 km)
Ceiling: 3300 feet AGL
Clouds: scattered clouds at 1700 feet AGL
broken clouds at 3300 feet AGL
Weather: VCSH  (showers in vicinity)

METAR text: EDSB 021050Z 25004KT 220V280 8000 -RA SCT015 BKN024 05/04 Q1002
Conditions at: EDSB (KARLSRUHE/BADEN , DE) observed 1050 UTC 02 December 2021
Temperature: 5.0°C (41°F)
Dewpoint: 4.0°C (39°F) [RH = 93%]
Pressure (altimeter): 29.59 inches Hg (1002.0 mb)
Winds: from the WSW (250 degrees) at 5 MPH (4 knots; 2.1 m/s)
Visibility: 5 miles ( 8 km)
Ceiling: 2400 feet AGL
Clouds: scattered clouds at 1500 feet AGL
broken clouds at 2400 feet AGL
Weather: -RA  (light rain)

METAR text: EDSB 021020Z 24006KT 200V290 9000 VCSH FEW011 SCT024 BKN032 05/03 Q1002
Conditions at: EDSB (KARLSRUHE/BADEN , DE) observed 1020 UTC 02 December 2021
Temperature: 5.0°C (41°F)
Dewpoint: 3.0°C (37°F) [RH = 87%]
Pressure (altimeter): 29.59 inches Hg (1002.0 mb)
Winds: from the WSW (240 degrees) at 7 MPH (6 knots; 3.1 m/s)
Visibility: 6 miles ( 9 km)
Ceiling: 3200 feet AGL
Clouds: few clouds at 1100 feet AGL
scattered clouds at 2400 feet AGL
broken clouds at 3200 feet AGL
Weather: VCSH  (showers in vicinity)

METAR text: EDSB 020950Z 24005KT 210V270 8000 VCSH SCT013 BKN019 05/03 Q1002
Conditions at: EDSB (KARLSRUHE/BADEN , DE) observed 0950 UTC 02 December 2021
Temperature: 5.0°C (41°F)
Dewpoint: 3.0°C (37°F) [RH = 87%]
Pressure (altimeter): 29.59 inches Hg (1002.0 mb)
Winds: from the WSW (240 degrees) at 6 MPH (5 knots; 2.6 m/s)
Visibility: 5 miles ( 8 km)
Ceiling: 1900 feet AGL
Clouds: scattered clouds at 1300 feet AGL
broken clouds at 1900 feet AGL
Weather: VCSH  (showers in vicinity)

METAR text: EDSB 020920Z 24008KT 7000 -RA FEW013 BKN017 04/03 Q1002 RERA
Conditions at: EDSB (KARLSRUHE/BADEN , DE) observed 0920 UTC 02 December 2021
Temperature: 4.0°C (39°F)
Dewpoint: 3.0°C (37°F) [RH = 93%]
Pressure (altimeter): 29.59 inches Hg (1002.0 mb)
Winds: from the WSW (240 degrees) at 9 MPH (8 knots; 4.1 m/s)
Visibility: 4 miles ( 7 km)
Ceiling: 1700 feet AGL
Clouds: few clouds at 1300 feet AGL
broken clouds at 1700 feet AGL
Weather: -RA  (light rain)

METAR text: EDSB 020850Z 25011KT 210V280 6000 RA BKN011 OVC032 05/03 Q1002
Conditions at: EDSB (KARLSRUHE/BADEN , DE) observed 0850 UTC 02 December 2021
Temperature: 5.0°C (41°F)
Dewpoint: 3.0°C (37°F) [RH = 87%]
Pressure (altimeter): 29.59 inches Hg (1002.0 mb)
Winds: from the WSW (250 degrees) at 13 MPH (11 knots; 5.7 m/s)
Visibility: 4 miles ( 6 km)
Ceiling: 1100 feet AGL
Clouds: broken clouds at 1100 feet AGL
overcast cloud deck at 3200 feet AGL
Weather: RA  (moderate rain)

METAR text: EDSB 020820Z 20011KT 9999 VCSH SCT019 SCT026 OVC031 05/04 Q1001
Conditions at: EDSB (KARLSRUHE/BADEN , DE) observed 0820 UTC 02 December 2021
Temperature: 5.0°C (41°F)
Dewpoint: 4.0°C (39°F) [RH = 93%]
Pressure (altimeter): 29.56 inches Hg (1001.0 mb)
Winds: from the SSW (200 degrees) at 13 MPH (11 knots; 5.7 m/s)
Visibility: 6 or more miles (10+ km)
Ceiling: 3100 feet AGL
Clouds: scattered clouds at 1900 feet AGL
scattered clouds at 2600 feet AGL
overcast cloud deck at 3100 feet AGL
Weather: VCSH  (showers in vicinity)

METAR text: EDSB 020750Z 20009KT 9999 VCSH FEW014 BKN022 05/04 Q1001
Conditions at: EDSB (KARLSRUHE/BADEN , DE) observed 0750 UTC 02 December 2021
Temperature: 5.0°C (41°F)
Dewpoint: 4.0°C (39°F) [RH = 93%]
Pressure (altimeter): 29.56 inches Hg (1001.0 mb)
Winds: from the SSW (200 degrees) at 10 MPH (9 knots; 4.6 m/s)
Visibility: 6 or more miles (10+ km)
Ceiling: 2200 feet AGL
Clouds: few clouds at 1400 feet AGL
broken clouds at 2200 feet AGL
Weather: VCSH  (showers in vicinity)

METAR text: EDSB 020720Z 20009KT 9999 FEW014 SCT025 05/04 Q1001
Conditions at: EDSB (KARLSRUHE/BADEN , DE) observed 0720 UTC 02 December 2021
Temperature: 5.0°C (41°F)
Dewpoint: 4.0°C (39°F) [RH = 93%]
Pressure (altimeter): 29.56 inches Hg (1001.0 mb)
Winds: from the SSW (200 degrees) at 10 MPH (9 knots; 4.6 m/s)
Visibility: 6 or more miles (10+ km)
Ceiling: at least 12,000 feet AGL
Clouds: few clouds at 1400 feet AGL
scattered clouds at 2500 feet AGL
Weather: no significant weather observed at this time

METAR text: EDSB 020650Z 22009KT 9999 FEW016 OVC028 05/04 Q1001
Conditions at: EDSB (KARLSRUHE/BADEN , DE) observed 0650 UTC 02 December 2021
Temperature: 5.0°C (41°F)
Dewpoint: 4.0°C (39°F) [RH = 93%]
Pressure (altimeter): 29.56 inches Hg (1001.0 mb)
Winds: from the SW (220 degrees) at 10 MPH (9 knots; 4.6 m/s)
Visibility: 6 or more miles (10+ km)
Ceiling: 2800 feet AGL
Clouds: few clouds at 1600 feet AGL
overcast cloud deck at 2800 feet AGL
Weather: no significant weather observed at this time

METAR text: EDSB 020620Z 21009KT 9999 FEW020 OVC033 05/04 Q1001
Conditions at: EDSB (KARLSRUHE/BADEN , DE) observed 0620 UTC 02 December 2021
Temperature: 5.0°C (41°F)
Dewpoint: 4.0°C (39°F) [RH = 93%]
Pressure (altimeter): 29.56 inches Hg (1001.0 mb)
Winds: from the SSW (210 degrees) at 10 MPH (9 knots; 4.6 m/s)
Visibility: 6 or more miles (10+ km)
Ceiling: 3300 feet AGL
Clouds: few clouds at 2000 feet AGL
overcast cloud deck at 3300 feet AGL
Weather: no significant weather observed at this time

METAR text: EDSB 020550Z 20007KT 9999 BKN020 OVC027 05/04 Q1001
Conditions at: EDSB (KARLSRUHE/BADEN , DE) observed 0550 UTC 02 December 2021
Temperature: 5.0°C (41°F)
Dewpoint: 4.0°C (39°F) [RH = 93%]
Pressure (altimeter): 29.56 inches Hg (1001.0 mb)
Winds: from the SSW (200 degrees) at 8 MPH (7 knots; 3.6 m/s)
Visibility: 6 or more miles (10+ km)
Ceiling: 2000 feet AGL
Clouds: broken clouds at 2000 feet AGL
overcast cloud deck at 2700 feet AGL
Weather: no significant weather observed at this time

METAR text: EDSB 020520Z 21006KT 9999 OVC021 05/03 Q1001
Conditions at: EDSB (KARLSRUHE/BADEN , DE) observed 0520 UTC 02 December 2021
Temperature: 5.0°C (41°F)
Dewpoint: 3.0°C (37°F) [RH = 87%]
Pressure (altimeter): 29.56 inches Hg (1001.0 mb)
Winds: from the SSW (210 degrees) at 7 MPH (6 knots; 3.1 m/s)
Visibility: 6 or more miles (10+ km)
Ceiling: 2100 feet AGL
Clouds: overcast cloud deck at 2100 feet AGL
Weather: no significant weather observed at this time

Forecast for: EDSB (KARLSRUHE/BADEN , DE)
Text: TAF EDSB 031100Z 0312/0412 20010KT 9999 FEW040
Forecast period: 1200 UTC 03 December 2021 to 0300 UTC 04 December 2021
Forecast type: FROM: standard forecast or significant change
Winds: from the SSW (200 degrees) at 12 MPH (10 knots; 5.1 m/s)
Visibility: 6 or more miles (10+ km)
Ceiling: at least 12,000 feet AGL
Clouds: few clouds at 4000 feet AGL
Weather: no significant weather forecast for this period
Text: TEMPO 0402/0408 4000 RA
Forecast period: 0200 to 0800 UTC 04 December 2021
Forecast type: TEMPORARY: The following changes expected for less than half the time period
Visibility: 2.49 miles (4.01 km)
Ceiling: unknown
Clouds: missing
Weather: RA  (moderate rain)
Text: BECMG 0403/0406 20015G25KT
Forecast period: 0300 to 1200 UTC 04 December 2021
Forecast type: BECOMING: Conditions expected to become as follows by 0600 UTC 04 December 2021
Winds: from the SSW (200 degrees) at 17 MPH (15 knots; 7.7 m/s)
gusting to 29 MPH (25 knots; 12.9 m/s)
Visibility: 6 or more miles (10+ km)
Ceiling: at least 12,000 feet AGL
Clouds: few clouds at 4000 feet AGL
Weather: no significant weather forecast for this period
Text: PROB30
Forecast period: 0800 to 1200 UTC 04 December 2021
Forecast type: TEMPORARY: The following changes expected for less than half the time period
Visibility: 2.49 miles (4.01 km)
Ceiling: 2500 feet AGL
Clouds: broken clouds at 2500 feet AGL
Weather: SHRA  (rain showers)